sensor_id;sensor_type;location;lat;lon;timestamp;pressure;altitude;pressure_sealevel;temperature;humidity
24013;BME280;12220;50.194;18.948;2023-01-16T00:00:24;100976.79;;;5.44;78.04
24013;BME280;12220;50.194;18.948;2023-01-16T00:02:30;100979.59;;;5.42;77.97
24013;BME280;12220;50.194;18.948;2023-01-16T00:04:32;100977.95;;;5.38;77.96
24013;BME280;12220;50.194;18.948;2023-01-16T00:06:37;100978.96;;;5.35;77.96
24013;BME280;12220;50.194;18.948;2023-01-16T00:08:42;100972.87;;;5.30;77.98
24013;BME280;12220;50.194;18.948;2023-01-16T00:10:45;100973.01;;;5.27;77.67
24013;BME280;12220;50.194;18.948;2023-01-16T00:12:49;100977.53;;;5.27;77.94
24013;BME280;12220;50.194;18.948;2023-01-16T00:14:52;100968.66;;;5.23;78.01
24013;BME280;12220;50.194;18.948;2023-01-16T00:16:54;100972.25;;;5.23;78.09
24013;BME280;12220;50.194;18.948;2023-01-16T00:18:55;100973.04;;;5.26;78.13
24013;BME280;12220;50.194;18.948;2023-01-16T00:21:00;100976.66;;;5.26;78.07
24013;BME280;12220;50.194;18.948;2023-01-16T00:23:08;100978.44;;;5.27;77.99
24013;BME280;12220;50.194;18.948;2023-01-16T00:25:12;100975.66;;;5.29;77.93
24013;BME280;12220;50.194;18.948;2023-01-16T00:27:14;100404.81;;;1.92;77.46
24013;BME280;12220;50.194;18.948;2023-01-16T00:29:16;100963.02;;;5.28;77.74
24013;BME280;12220;50.194;18.948;2023-01-16T00:31:22;100960.23;;;5.29;77.66
24013;BME280;12220;50.194;18.948;2023-01-16T00:33:25;100958.54;;;5.27;77.60
24013;BME280;12220;50.194;18.948;2023-01-16T00:35:27;100958.46;;;5.28;77.54
24013;BME280;12220;50.194;18.948;2023-01-16T00:37:29;100962.16;;;5.27;77.41
24013;BME280;12220;50.194;18.948;2023-01-16T00:39:37;100950.46;;;5.25;77.32
24013;BME280;12220;50.194;18.948;2023-01-16T00:44:12;100959.69;;;5.21;77.13
24013;BME280;12220;50.194;18.948;2023-01-16T00:46:15;100956.23;;;5.17;77.09
24013;BME280;12220;50.194;18.948;2023-01-16T00:48:25;100955.40;;;5.15;76.99
24013;BME280;12220;50.194;18.948;2023-01-16T00:50:26;100960.97;;;5.12;76.93
24013;BME280;12220;50.194;18.948;2023-01-16T00:52:28;100960.17;;;5.10;76.82
24013;BME280;12220;50.194;18.948;2023-01-16T00:54:32;100961.18;;;5.08;76.81
24013;BME280;12220;50.194;18.948;2023-01-16T00:56:39;100960.52;;;5.02;76.73
24013;BME280;12220;50.194;18.948;2023-01-16T00:58:41;100965.11;;;5.00;76.68
24013;BME280;12220;50.194;18.948;2023-01-16T01:00:42;100962.59;;;4.96;76.68
24013;BME280;12220;50.194;18.948;2023-01-16T01:02:44;100955.47;;;4.93;76.75
24013;BME280;12220;50.194;18.948;2023-01-16T01:04:54;100746.55;;;3.68;76.67
24013;BME280;12220;50.194;18.948;2023-01-16T01:06:56;100951.12;;;4.89;76.89
24013;BME280;12220;50.194;18.948;2023-01-16T01:08:57;100955.59;;;4.90;76.73
24013;BME280;12220;50.194;18.948;2023-01-16T01:11:10;100955.74;;;4.87;76.59
24013;BME280;12220;50.194;18.948;2023-01-16T01:13:12;100957.69;;;4.83;76.52
24013;BME280;12220;50.194;18.948;2023-01-16T01:15:14;100955.04;;;4.82;76.54
24013;BME280;12220;50.194;18.948;2023-01-16T01:17:15;100949.69;;;4.80;76.52
24013;BME280;12220;50.194;18.948;2023-01-16T01:19:22;100949.82;;;4.77;76.45
24013;BME280;12220;50.194;18.948;2023-01-16T01:21:24;100948.10;;;4.75;76.41
24013;BME280;12220;50.194;18.948;2023-01-16T01:23:26;100946.37;;;4.74;76.34
24013;BME280;12220;50.194;18.948;2023-01-16T01:25:29;100948.25;;;4.71;76.25
24013;BME280;12220;50.194;18.948;2023-01-16T01:27:31;100958.35;;;4.68;76.12
24013;BME280;12220;50.194;18.948;2023-01-16T01:29:40;100951.29;;;4.64;76.07
24013;BME280;12220;50.194;18.948;2023-01-16T01:31:41;100959.55;;;4.61;76.00
24013;BME280;12220;50.194;18.948;2023-01-16T01:33:43;100942.58;;;4.56;75.91
24013;BME280;12220;50.194;18.948;2023-01-16T01:35:44;100938.26;;;4.51;75.87
24013;BME280;12220;50.194;18.948;2023-01-16T01:37:55;100939.33;;;4.47;75.79
24013;BME280;12220;50.194;18.948;2023-01-16T01:39:56;100944.89;;;4.44;75.74
24013;BME280;12220;50.194;18.948;2023-01-16T01:41:58;100946.89;;;4.39;75.60
24013;BME280;12220;50.194;18.948;2023-01-16T01:46:39;100943.73;;;4.28;75.62
24013;BME280;12220;50.194;18.948;2023-01-16T01:48:40;100949.34;;;4.23;75.58
24013;BME280;12220;50.194;18.948;2023-01-16T01:51:09;100942.34;;;4.17;75.57
24013;BME280;12220;50.194;18.948;2023-01-16T01:53:24;100939.75;;;4.14;75.64
24013;BME280;12220;50.194;18.948;2023-01-16T01:55:38;100939.01;;;4.11;75.64
24013;BME280;12220;50.194;18.948;2023-01-16T01:57:45;100935.45;;;4.09;75.68
24013;BME280;12220;50.194;18.948;2023-01-16T02:00:02;100939.30;;;4.03;75.65
24013;BME280;12220;50.194;18.948;2023-01-16T02:02:04;100925.00;;;3.99;75.73
24013;BME280;12220;50.194;18.948;2023-01-16T02:04:13;100913.22;;;4.00;75.88
24013;BME280;12220;50.194;18.948;2023-01-16T02:06:20;100910.52;;;4.00;76.01
24013;BME280;12220;50.194;18.948;2023-01-16T02:08:25;100905.96;;;4.01;76.09
24013;BME280;12220;50.194;18.948;2023-01-16T02:10:37;100910.52;;;4.00;76.21
24013;BME280;12220;50.194;18.948;2023-01-16T02:12:41;100918.64;;;4.00;76.30
24013;BME280;12220;50.194;18.948;2023-01-16T02:14:44;100913.16;;;4.02;76.39
24013;BME280;12220;50.194;18.948;2023-01-16T02:17:09;100905.90;;;4.03;76.48
24013;BME280;12220;50.194;18.948;2023-01-16T02:28:55;100923.88;;;4.05;76.93
24013;BME280;12220;50.194;18.948;2023-01-16T02:31:24;100910.26;;;4.07;76.95
24013;BME280;12220;50.194;18.948;2023-01-16T02:33:37;100894.87;;;4.07;77.02
24013;BME280;12220;50.194;18.948;2023-01-16T02:40:42;100903.84;;;4.09;77.02
24013;BME280;12220;50.194;18.948;2023-01-16T02:42:59;100897.52;;;4.09;77.04
24013;BME280;12220;50.194;18.948;2023-01-16T02:47:46;100911.00;;;4.10;77.12
24013;BME280;12220;50.194;18.948;2023-01-16T02:52:30;100899.23;;;4.11;77.12
24013;BME280;12220;50.194;18.948;2023-01-16T03:06:51;100889.03;;;4.18;76.87
24013;BME280;12220;50.194;18.948;2023-01-16T03:11:22;100891.67;;;4.19;76.76
24013;BME280;12220;50.194;18.948;2023-01-16T03:16:01;100891.67;;;4.19;76.71
24013;BME280;12220;50.194;18.948;2023-01-16T03:34:51;100882.45;;;4.24;76.40
24013;BME280;12220;50.194;18.948;2023-01-16T03:39:30;100874.58;;;4.17;76.36
24013;BME280;12220;50.194;18.948;2023-01-16T03:41:49;100866.57;;;4.14;76.36
24013;BME280;12220;50.194;18.948;2023-01-16T03:43:58;100861.29;;;4.11;76.39
24013;BME280;12220;50.194;18.948;2023-01-16T03:46:08;100863.13;;;4.11;76.49
24013;BME280;12220;50.194;18.948;2023-01-16T03:48:16;100852.35;;;4.09;76.53
24013;BME280;12220;50.194;18.948;2023-01-16T03:50:21;100845.16;;;4.08;76.58
24013;BME280;12220;50.194;18.948;2023-01-16T03:52:32;100857.80;;;4.08;76.57
24013;BME280;12220;50.194;18.948;2023-01-16T03:54:42;100856.94;;;4.07;76.62
24013;BME280;12220;50.194;18.948;2023-01-16T03:58:58;100851.64;;;4.04;76.68
24013;BME280;12220;50.194;18.948;2023-01-16T04:03:23;100852.58;;;4.03;76.78
24013;BME280;12220;50.194;18.948;2023-01-16T04:05:47;100849.93;;;4.01;76.84
24013;BME280;12220;50.194;18.948;2023-01-16T04:07:59;100837.29;;;4.02;76.87
24013;BME280;12220;50.194;18.948;2023-01-16T04:12:18;100828.33;;;4.00;77.04
24013;BME280;12220;50.194;18.948;2023-01-16T04:14:23;100828.33;;;4.00;77.07
24013;BME280;12220;50.194;18.948;2023-01-16T04:16:28;100829.16;;;4.02;77.07
24013;BME280;12220;50.194;18.948;2023-01-16T04:18:41;100824.54;;;4.04;77.11
24013;BME280;12220;50.194;18.948;2023-01-16T04:20:48;100818.19;;;4.05;77.08
24013;BME280;12220;50.194;18.948;2023-01-16T04:22:55;100814.44;;;4.08;77.03
24013;BME280;12220;50.194;18.948;2023-01-16T04:25:00;100807.22;;;4.08;76.94
24013;BME280;12220;50.194;18.948;2023-01-16T04:27:03;100811.70;;;4.09;76.94
24013;BME280;12220;50.194;18.948;2023-01-16T04:29:04;100800.85;;;4.09;76.90
24013;BME280;12220;50.194;18.948;2023-01-16T04:31:06;100793.59;;;4.10;76.90
24013;BME280;12220;50.194;18.948;2023-01-16T04:33:10;100790.95;;;4.08;76.84
24013;BME280;12220;50.194;18.948;2023-01-16T04:35:13;100789.05;;;4.10;76.83
24013;BME280;12220;50.194;18.948;2023-01-16T04:37:16;100784.53;;;4.11;76.79
24013;BME280;12220;50.194;18.948;2023-01-16T04:39:18;100783.55;;;4.12;76.77
24013;BME280;12220;50.194;18.948;2023-01-16T04:41:20;100773.56;;;4.14;76.75
24013;BME280;12220;50.194;18.948;2023-01-16T04:43:33;100775.23;;;4.16;76.71
24013;BME280;12220;50.194;18.948;2023-01-16T04:45:35;100770.64;;;4.18;76.66
24013;BME280;12220;50.194;18.948;2023-01-16T04:47:36;100774.22;;;4.19;76.57
24013;BME280;12220;50.194;18.948;2023-01-16T04:49:38;100769.70;;;4.19;76.49
24013;BME280;12220;50.194;18.948;2023-01-16T04:51:43;100768.66;;;4.22;76.44
24013;BME280;12220;50.194;18.948;2023-01-16T04:53:44;100768.66;;;4.22;76.39
24013;BME280;12220;50.194;18.948;2023-01-16T04:55:46;100767.66;;;4.25;76.32
24013;BME280;12220;50.194;18.948;2023-01-16T04:57:47;100763.07;;;4.27;76.22
24013;BME280;12220;50.194;18.948;2023-01-16T04:59:58;100756.74;;;4.26;76.16
24013;BME280;12220;50.194;18.948;2023-01-16T05:01:59;100763.07;;;4.27;76.16
24013;BME280;12220;50.194;18.948;2023-01-16T05:04:01;100759.39;;;4.28;76.06
24013;BME280;12220;50.194;18.948;2023-01-16T05:06:03;100758.59;;;4.26;75.93
24013;BME280;12220;50.194;18.948;2023-01-16T05:08:13;100758.65;;;4.24;75.92
24013;BME280;12220;50.194;18.948;2023-01-16T05:10:19;99748.02;;;-1.69;75.31
24013;BME280;12220;50.194;18.948;2023-01-16T05:12:21;100747.95;;;4.21;75.90
24013;BME280;12220;50.194;18.948;2023-01-16T05:14:22;100756.02;;;4.23;75.91
24013;BME280;12220;50.194;18.948;2023-01-16T05:16:28;100755.12;;;4.22;75.89
24013;BME280;12220;50.194;18.948;2023-01-16T05:18:29;100754.24;;;4.22;75.91
24013;BME280;12220;50.194;18.948;2023-01-16T05:20:31;100763.31;;;4.21;75.75
24013;BME280;12220;50.194;18.948;2023-01-16T05:22:32;100758.94;;;4.18;75.70
24013;BME280;12220;50.194;18.948;2023-01-16T05:24:43;100748.20;;;4.15;75.73
24013;BME280;12220;50.194;18.948;2023-01-16T05:26:47;100755.52;;;4.13;75.79
24013;BME280;12220;50.194;18.948;2023-01-16T05:28:48;100763.66;;;4.13;75.86
24013;BME280;12220;50.194;18.948;2023-01-16T05:30:50;100750.10;;;4.13;75.85
24013;BME280;12220;50.194;18.948;2023-01-16T05:32:58;100755.59;;;4.11;75.85
24013;BME280;12220;50.194;18.948;2023-01-16T05:34:59;100755.59;;;4.11;75.88
24013;BME280;12220;50.194;18.948;2023-01-16T05:37:03;100754.66;;;4.12;75.89
24013;BME280;12220;50.194;18.948;2023-01-16T05:39:07;100750.98;;;4.13;75.90
24013;BME280;12220;50.194;18.948;2023-01-16T05:41:13;100741.91;;;4.14;75.91
24013;BME280;12220;50.194;18.948;2023-01-16T05:43:15;100741.91;;;4.14;75.80
24013;BME280;12220;50.194;18.948;2023-01-16T05:45:16;100728.43;;;4.13;75.76
24013;BME280;12220;50.194;18.948;2023-01-16T05:47:21;100726.66;;;4.12;75.74
24013;BME280;12220;50.194;18.948;2023-01-16T05:49:28;100733.91;;;4.11;75.71
24013;BME280;12220;50.194;18.948;2023-01-16T05:51:30;100725.91;;;4.08;75.70
24013;BME280;12220;50.194;18.948;2023-01-16T05:53:31;100726.86;;;4.07;75.58
24013;BME280;12220;50.194;18.948;2023-01-16T05:55:42;100719.74;;;4.05;75.63
24013;BME280;12220;50.194;18.948;2023-01-16T05:57:44;100724.29;;;4.04;75.69
24013;BME280;12220;50.194;18.948;2023-01-16T05:59:50;100723.48;;;4.02;75.71
24013;BME280;12220;50.194;18.948;2023-01-16T06:01:52;100715.36;;;4.02;75.74
24013;BME280;12220;50.194;18.948;2023-01-16T06:03:53;100717.16;;;4.01;75.74
24013;BME280;12220;50.194;18.948;2023-01-16T06:05:58;100713.59;;;4.01;75.71
24013;BME280;12220;50.194;18.948;2023-01-16T06:08:03;100714.52;;;4.00;75.70
24013;BME280;12220;50.194;18.948;2023-01-16T06:10:06;100704.62;;;3.99;75.70
24013;BME280;12220;50.194;18.948;2023-01-16T06:12:10;100708.30;;;3.98;75.66
24013;BME280;12220;50.194;18.948;2023-01-16T06:14:17;100702.88;;;3.98;75.68
24013;BME280;12220;50.194;18.948;2023-01-16T06:16:21;100698.40;;;3.97;75.62
24013;BME280;12220;50.194;18.948;2023-01-16T06:18:23;100690.41;;;3.94;75.60
24013;BME280;12220;50.194;18.948;2023-01-16T06:22:55;100696.90;;;3.90;75.51
24013;BME280;12220;50.194;18.948;2023-01-16T06:32:15;100693.60;;;3.83;75.52
24013;BME280;12220;50.194;18.948;2023-01-16T06:34:17;100693.63;;;3.81;75.57
24013;BME280;12220;50.194;18.948;2023-01-16T06:36:20;100680.16;;;3.80;75.62
24013;BME280;12220;50.194;18.948;2023-01-16T06:38:24;100681.99;;;3.79;75.65
24013;BME280;12220;50.194;18.948;2023-01-16T06:40:26;100685.58;;;3.80;75.71
24013;BME280;12220;50.194;18.948;2023-01-16T06:42:32;100685.51;;;3.81;75.70
24013;BME280;12220;50.194;18.948;2023-01-16T06:44:34;100636.07;;;3.56;75.70
24013;BME280;12220;50.194;18.948;2023-01-16T06:46:35;100672.93;;;3.80;75.68
24013;BME280;12220;50.194;18.948;2023-01-16T06:48:37;100672.93;;;3.80;75.61
24013;BME280;12220;50.194;18.948;2023-01-16T06:50:47;100670.36;;;3.77;75.58
24013;BME280;12220;50.194;18.948;2023-01-16T06:52:49;100671.44;;;3.73;75.55
24013;BME280;12220;50.194;18.948;2023-01-16T06:54:50;100674.28;;;3.70;75.54
24013;BME280;12220;50.194;18.948;2023-01-16T06:56:52;100671.70;;;3.67;75.61
24013;BME280;12220;50.194;18.948;2023-01-16T06:59:02;100671.73;;;3.65;75.68
24013;BME280;12220;50.194;18.948;2023-01-16T07:01:05;100677.16;;;3.65;75.73
24013;BME280;12220;50.194;18.948;2023-01-16T07:03:08;100670.94;;;3.63;75.78
24013;BME280;12220;50.194;18.948;2023-01-16T07:05:10;100672.70;;;3.64;75.81
24013;BME280;12220;50.194;18.948;2023-01-16T07:07:18;100673.51;;;3.66;75.86
24013;BME280;12220;50.194;18.948;2023-01-16T07:09:22;100670.80;;;3.66;75.92
24013;BME280;12220;50.194;18.948;2023-01-16T07:11:29;100674.35;;;3.69;75.90
24013;BME280;12220;50.194;18.948;2023-01-16T07:13:31;100672.45;;;3.71;75.93
24013;BME280;12220;50.194;18.948;2023-01-16T07:15:34;100666.02;;;3.73;75.88
24013;BME280;12220;50.194;18.948;2023-01-16T07:17:56;100670.49;;;3.74;75.86
24013;BME280;12220;50.194;18.948;2023-01-16T07:20:17;100674.95;;;3.75;75.77
24013;BME280;12220;50.194;18.948;2023-01-16T07:22:39;100669.52;;;3.75;75.78
24013;BME280;12220;50.194;18.948;2023-01-16T07:24:44;100671.36;;;3.75;75.76
24013;BME280;12220;50.194;18.948;2023-01-16T07:26:53;100672.23;;;3.75;75.70
24013;BME280;12220;50.194;18.948;2023-01-16T07:29:00;100671.44;;;3.73;75.71
24013;BME280;12220;50.194;18.948;2023-01-16T07:31:04;100669.59;;;3.74;75.79
24013;BME280;12220;50.194;18.948;2023-01-16T07:33:17;100666.82;;;3.75;75.83
24013;BME280;12220;50.194;18.948;2023-01-16T07:35:19;100666.82;;;3.75;75.93
24013;BME280;12220;50.194;18.948;2023-01-16T07:37:20;100664.05;;;3.77;75.95
24013;BME280;12220;50.194;18.948;2023-01-16T07:39:22;100660.33;;;3.79;76.02
24013;BME280;12220;50.194;18.948;2023-01-16T07:41:32;100651.27;;;3.80;75.98
24013;BME280;12220;50.194;18.948;2023-01-16T07:43:35;100643.07;;;3.82;75.98
24013;BME280;12220;50.194;18.948;2023-01-16T07:45:36;100644.77;;;3.84;76.00
24013;BME280;12220;50.194;18.948;2023-01-16T07:47:38;100644.70;;;3.86;75.96
24013;BME280;12220;50.194;18.948;2023-01-16T07:49:47;100646.58;;;3.84;75.91
24013;BME280;12220;50.194;18.948;2023-01-16T07:51:49;100638.45;;;3.84;75.97
24013;BME280;12220;50.194;18.948;2023-01-16T07:53:53;100628.52;;;3.84;76.06
24013;BME280;12220;50.194;18.948;2023-01-16T07:55:59;100627.41;;;3.89;76.10
24013;BME280;12220;50.194;18.948;2023-01-16T07:58:02;100630.95;;;3.91;76.10
24013;BME280;12220;50.194;18.948;2023-01-16T08:00:06;100618.20;;;3.93;76.07
24013;BME280;12220;50.194;18.948;2023-01-16T08:02:11;100619.10;;;3.93;76.06
24013;BME280;12220;50.194;18.948;2023-01-16T08:04:13;100611.84;;;3.94;76.05
24013;BME280;12220;50.194;18.948;2023-01-16T08:06:18;100608.19;;;3.95;76.08
24013;BME280;12220;50.194;18.948;2023-01-16T08:08:19;100607.22;;;3.96;76.12
24013;BME280;12220;50.194;18.948;2023-01-16T08:10:21;100609.94;;;3.96;76.19
24013;BME280;12220;50.194;18.948;2023-01-16T08:12:28;100598.95;;;3.99;76.26
24013;BME280;12220;50.194;18.948;2023-01-16T08:14:33;100607.05;;;4.00;76.27
24013;BME280;12220;50.194;18.948;2023-01-16T08:16:34;100605.14;;;4.03;76.29
24013;BME280;12220;50.194;18.948;2023-01-16T08:18:36;100603.22;;;4.05;76.35
24013;BME280;12220;50.194;18.948;2023-01-16T08:20:37;100595.92;;;4.07;76.37
24013;BME280;12220;50.194;18.948;2023-01-16T08:22:50;100596.72;;;4.09;76.40
24013;BME280;12220;50.194;18.948;2023-01-16T08:24:52;100588.52;;;4.10;76.41
24013;BME280;12220;50.194;18.948;2023-01-16T08:26:54;100598.34;;;4.13;76.42
24013;BME280;12220;50.194;18.948;2023-01-16T08:28:56;100591.00;;;4.15;76.67
24013;BME280;12220;50.194;18.948;2023-01-16T08:31:10;100583.63;;;4.18;76.45
24013;BME280;12220;50.194;18.948;2023-01-16T08:33:14;100584.36;;;4.22;76.46
24013;BME280;12220;50.194;18.948;2023-01-16T08:35:16;100588.70;;;4.26;76.49
24013;BME280;12220;50.194;18.948;2023-01-16T08:37:17;100575.82;;;4.31;76.52
24013;BME280;12220;50.194;18.948;2023-01-16T08:39:21;100571.12;;;4.35;76.51
24013;BME280;12220;50.194;18.948;2023-01-16T08:41:22;100566.37;;;4.40;76.54
24013;BME280;12220;50.194;18.948;2023-01-16T08:43:35;100565.28;;;4.44;76.53
24013;BME280;12220;50.194;18.948;2023-01-16T08:45:49;100567.76;;;4.49;76.50
24013;BME280;12220;50.194;18.948;2023-01-16T08:48:02;100558.62;;;4.51;76.45
24013;BME280;12220;50.194;18.948;2023-01-16T08:50:19;100558.47;;;4.54;76.36
24013;BME280;12220;50.194;18.948;2023-01-16T08:52:34;100552.14;;;4.54;76.29
24013;BME280;12220;50.194;18.948;2023-01-16T08:54:45;100407.91;;;3.71;76.16
24013;BME280;12220;50.194;18.948;2023-01-16T08:56:46;100544.98;;;4.53;76.34
24013;BME280;12220;50.194;18.948;2023-01-16T08:58:48;100550.33;;;4.54;76.38
24013;BME280;12220;50.194;18.948;2023-01-16T09:00:55;100546.64;;;4.56;76.44
24013;BME280;12220;50.194;18.948;2023-01-16T09:03:00;100541.05;;;4.59;76.50
24013;BME280;12220;50.194;18.948;2023-01-16T09:05:02;100533.75;;;4.61;76.48
24013;BME280;12220;50.194;18.948;2023-01-16T09:07:05;100537.25;;;4.63;76.40
24013;BME280;12220;50.194;18.948;2023-01-16T09:09:07;100526.41;;;4.63;76.35
24013;BME280;12220;50.194;18.948;2023-01-16T09:11:15;100520.83;;;4.66;76.37
24013;BME280;12220;50.194;18.948;2023-01-16T09:13:37;100517.99;;;4.69;76.36
24013;BME280;12220;50.194;18.948;2023-01-16T09:16:05;100508.02;;;4.69;76.23
24013;BME280;12220;50.194;18.948;2023-01-16T09:18:09;100508.09;;;4.68;76.20
24013;BME280;12220;50.194;18.948;2023-01-16T09:20:11;100501.64;;;4.70;76.29
24013;BME280;12220;50.194;18.948;2023-01-16T09:22:13;100497.87;;;4.73;76.37
24013;BME280;12220;50.194;18.948;2023-01-16T09:24:16;100497.75;;;4.76;76.36
24013;BME280;12220;50.194;18.948;2023-01-16T09:26:17;100494.88;;;4.79;76.26
24013;BME280;12220;50.194;18.948;2023-01-16T09:28:19;100492.95;;;4.81;76.28
24013;BME280;12220;50.194;18.948;2023-01-16T09:30:21;100481.94;;;4.84;76.27
24013;BME280;12220;50.194;18.948;2023-01-16T09:32:31;100480.91;;;4.87;76.24
24013;BME280;12220;50.194;18.948;2023-01-16T09:34:35;100474.46;;;4.89;76.24
24013;BME280;12220;50.194;18.948;2023-01-16T09:36:37;100458.89;;;4.93;76.20
24013;BME280;12220;50.194;18.948;2023-01-16T09:38:39;100465.06;;;4.97;76.20
24013;BME280;12220;50.194;18.948;2023-01-16T09:40:47;100456.67;;;5.01;76.20
24013;BME280;12220;50.194;18.948;2023-01-16T09:45:17;100444.63;;;5.07;75.96
24013;BME280;12220;50.194;18.948;2023-01-16T09:47:23;100426.41;;;5.09;75.87
24013;BME280;12220;50.194;18.948;2023-01-16T09:49:38;100427.23;;;5.11;75.82
24013;BME280;12220;50.194;18.948;2023-01-16T09:51:45;100428.01;;;5.13;75.82
24013;BME280;12220;50.194;18.948;2023-01-16T09:54:12;100418.75;;;5.17;75.87
24013;BME280;12220;50.194;18.948;2023-01-16T09:56:37;100402.21;;;5.22;75.83
24013;BME280;12220;50.194;18.948;2023-01-16T09:59:02;100402.91;;;5.26;75.78
24013;BME280;12220;50.194;18.948;2023-01-16T10:01:12;100404.51;;;5.30;75.76
24013;BME280;12220;50.194;18.948;2023-01-16T10:03:17;100401.63;;;5.33;75.68
24013;BME280;12220;50.194;18.948;2023-01-16T10:05:21;100394.30;;;5.35;75.66
24013;BME280;12220;50.194;18.948;2023-01-16T10:12:01;100373.82;;;5.45;75.49
24013;BME280;12220;50.194;18.948;2023-01-16T10:16:41;100377.14;;;5.50;75.28
24013;BME280;12220;50.194;18.948;2023-01-16T10:23:50;100347.56;;;5.62;75.12
24013;BME280;12220;50.194;18.948;2023-01-16T10:26:04;100341.17;;;5.63;75.04
24013;BME280;12220;50.194;18.948;2023-01-16T10:28:35;100337.41;;;5.65;75.05
24013;BME280;12220;50.194;18.948;2023-01-16T10:30:49;100326.38;;;5.68;75.08
24013;BME280;12220;50.194;18.948;2023-01-16T10:33:08;100323.39;;;5.73;75.04
24013;BME280;12220;50.194;18.948;2023-01-16T10:35:29;100317.88;;;5.74;74.99
24013;BME280;12220;50.194;18.948;2023-01-16T10:37:43;100313.13;;;5.78;74.93
24013;BME280;12220;50.194;18.948;2023-01-16T10:39:46;100321.22;;;5.80;74.84
24013;BME280;12220;50.194;18.948;2023-01-16T10:41:55;100304.83;;;5.81;74.79
24013;BME280;12220;50.194;18.948;2023-01-16T10:46:37;100287.11;;;5.90;74.66
24013;BME280;12220;50.194;18.948;2023-01-16T10:48:52;100272.64;;;5.89;74.62
24013;BME280;12220;50.194;18.948;2023-01-16T10:51:07;100278.69;;;5.94;74.49
24013;BME280;12220;50.194;18.948;2023-01-16T10:53:11;100273.97;;;5.98;74.47
24013;BME280;12220;50.194;18.948;2023-01-16T10:55:14;100276.41;;;6.03;74.43
24013;BME280;12220;50.194;18.948;2023-01-16T10:57:18;100269.83;;;6.07;74.35
24013;BME280;12220;50.194;18.948;2023-01-16T10:59:20;100263.35;;;6.09;74.21
24013;BME280;12220;50.194;18.948;2023-01-16T11:04:10;100257.45;;;6.17;73.66
24013;BME280;12220;50.194;18.948;2023-01-16T11:08:26;100246.13;;;6.25;73.28
24013;BME280;12220;50.194;18.948;2023-01-16T11:10:28;100223.39;;;6.26;73.08
24013;BME280;12220;50.194;18.948;2023-01-16T11:12:31;100221.47;;;6.28;72.92
24013;BME280;12220;50.194;18.948;2023-01-16T11:14:44;100222.95;;;6.34;72.86
24013;BME280;12220;50.194;18.948;2023-01-16T11:19:24;100215.37;;;6.39;72.74
24013;BME280;12220;50.194;18.948;2023-01-16T11:21:31;100214.31;;;6.41;72.66
24013;BME280;12220;50.194;18.948;2023-01-16T11:23:37;100211.50;;;6.43;72.62
24013;BME280;12220;50.194;18.948;2023-01-16T11:25:39;100204.10;;;6.45;72.52
24013;BME280;12220;50.194;18.948;2023-01-16T11:27:41;100190.50;;;6.45;72.43
24013;BME280;12220;50.194;18.948;2023-01-16T11:29:44;100185.16;;;6.43;72.43
24013;BME280;12220;50.194;18.948;2023-01-16T11:31:53;100176.14;;;6.43;72.42
24013;BME280;12220;50.194;18.948;2023-01-16T11:33:58;100180.71;;;6.42;72.47
24013;BME280;12220;50.194;18.948;2023-01-16T11:36:06;100181.59;;;6.43;72.51
24013;BME280;12220;50.194;18.948;2023-01-16T11:38:13;100173.42;;;6.43;72.54
24013;BME280;12220;50.194;18.948;2023-01-16T11:40:25;100162.45;;;6.44;72.62
24013;BME280;12220;50.194;18.948;2023-01-16T11:42:28;100153.32;;;6.45;72.59
24013;BME280;12220;50.194;18.948;2023-01-16T11:44:42;100157.70;;;6.48;72.61
24013;BME280;12220;50.194;18.948;2023-01-16T11:46:58;100160.13;;;6.53;72.61
24013;BME280;12220;50.194;18.948;2023-01-16T11:49:11;100144.48;;;6.56;72.65
24013;BME280;12220;50.194;18.948;2023-01-16T11:51:14;100156.92;;;6.60;72.71
24013;BME280;12220;50.194;18.948;2023-01-16T11:53:16;100153.05;;;6.65;72.69
24013;BME280;12220;50.194;18.948;2023-01-16T11:55:17;100150.88;;;6.70;72.65
24013;BME280;12220;50.194;18.948;2023-01-16T11:59:47;100136.71;;;6.79;72.50
24013;BME280;12220;50.194;18.948;2023-01-16T12:06:38;100114.13;;;6.91;72.21
24013;BME280;12220;50.194;18.948;2023-01-16T12:13:43;100093.71;;;6.98;71.30
24013;BME280;12220;50.194;18.948;2023-01-16T12:18:24;100085.54;;;6.98;70.43
24013;BME280;12220;50.194;18.948;2023-01-16T12:28:13;100045.77;;;6.96;70.21
24013;BME280;12220;50.194;18.948;2023-01-16T12:35:09;100029.06;;;7.02;70.05
24013;BME280;12220;50.194;18.948;2023-01-16T12:39:26;100032.55;;;7.04;69.74
24013;BME280;12220;50.194;18.948;2023-01-16T12:41:40;100026.99;;;7.06;69.88
24013;BME280;12220;50.194;18.948;2023-01-16T12:46:32;100024.16;;;7.07;69.87
24013;BME280;12220;50.194;18.948;2023-01-16T13:00:42;100006.34;;;7.16;69.99
24013;BME280;12220;50.194;18.948;2023-01-16T13:02:52;100003.51;;;7.18;69.96
24013;BME280;12220;50.194;18.948;2023-01-16T13:05:01;100001.68;;;7.18;69.98
24013;BME280;12220;50.194;18.948;2023-01-16T13:07:05;99995.34;;;7.18;70.03
24013;BME280;12220;50.194;18.948;2023-01-16T13:11:28;99990.00;;;7.16;70.11
24013;BME280;12220;50.194;18.948;2023-01-16T13:18:20;99980.88;;;7.17;70.09
24013;BME280;12220;50.194;18.948;2023-01-16T13:20:23;99970.94;;;7.16;70.10
24013;BME280;12220;50.194;18.948;2023-01-16T13:22:33;99968.32;;;7.14;69.90
24013;BME280;12220;50.194;18.948;2023-01-16T13:24:43;99963.85;;;7.13;69.91
24013;BME280;12220;50.194;18.948;2023-01-16T13:26:56;99962.88;;;7.14;69.94
24013;BME280;12220;50.194;18.948;2023-01-16T13:31:24;99953.85;;;7.14;69.91
24013;BME280;12220;50.194;18.948;2023-01-16T13:33:37;99951.02;;;7.15;70.00
24013;BME280;12220;50.194;18.948;2023-01-16T13:35:58;99933.83;;;7.15;70.07